sensor_id;sensor_type;location;lat;lon;timestamp;pressure;altitude;pressure_sealevel;temperature;humidity
57024;BME280;42916;54.346;18.562;2022-11-04T00:02:02;100103.98;;;3.73;100.00
57024;BME280;42916;54.346;18.562;2022-11-04T00:04:29;100097.23;;;3.73;100.00
57024;BME280;42916;54.346;18.562;2022-11-04T00:06:56;100092.38;;;3.75;100.00
57024;BME280;42916;54.346;18.562;2022-11-04T00:09:28;100095.21;;;3.76;100.00
57024;BME280;42916;54.346;18.562;2022-11-04T00:11:56;100091.91;;;3.77;100.00
57024;BME280;42916;54.346;18.562;2022-11-04T00:14:42;100088.42;;;3.78;100.00
57024;BME280;42916;54.346;18.562;2022-11-04T00:17:11;100084.90;;;3.79;100.00
57024;BME280;42916;54.346;18.562;2022-11-04T00:19:45;100082.60;;;3.81;100.00
57024;BME280;42916;54.346;18.562;2022-11-04T00:22:31;100084.98;;;3.84;100.00
57024;BME280;42916;54.346;18.562;2022-11-04T00:25:16;100087.56;;;3.88;100.00
57024;BME280;42916;54.346;18.562;2022-11-04T00:30:55;100089.83;;;3.95;100.00
57024;BME280;42916;54.346;18.562;2022-11-04T00:33:22;100080.27;;;3.99;100.00
57024;BME280;42916;54.346;18.562;2022-11-04T00:35:54;100082.13;;;4.01;100.00
57024;BME280;42916;54.346;18.562;2022-11-04T00:38:23;100082.16;;;4.02;100.00
57024;BME280;42916;54.346;18.562;2022-11-04T00:40:50;100078.92;;;4.00;100.00
57024;BME280;42916;54.346;18.562;2022-11-04T00:43:17;100075.54;;;4.00;100.00
57024;BME280;42916;54.346;18.562;2022-11-04T00:45:44;100079.02;;;4.01;100.00
57024;BME280;42916;54.346;18.562;2022-11-04T00:48:11;100077.31;;;4.02;100.00
57024;BME280;42916;54.346;18.562;2022-11-04T00:50:38;100073.38;;;4.02;100.00
57024;BME280;42916;54.346;18.562;2022-11-04T00:53:05;100065.20;;;4.04;100.00
57024;BME280;42916;54.346;18.562;2022-11-04T00:55:32;100068.38;;;4.05;100.00
57024;BME280;42916;54.346;18.562;2022-11-04T00:57:59;100061.41;;;4.06;100.00
57024;BME280;42916;54.346;18.562;2022-11-04T01:00:26;100058.41;;;4.08;100.00
57024;BME280;42916;54.346;18.562;2022-11-04T01:02:52;100054.06;;;4.12;100.00
57024;BME280;42916;54.346;18.562;2022-11-04T01:05:19;100045.16;;;4.17;100.00
57024;BME280;42916;54.346;18.562;2022-11-04T01:07:46;100037.34;;;4.20;100.00
57024;BME280;42916;54.346;18.562;2022-11-04T01:10:13;100029.55;;;4.24;100.00
57024;BME280;42916;54.346;18.562;2022-11-04T01:12:39;100028.23;;;4.28;100.00
57024;BME280;42916;54.346;18.562;2022-11-04T01:15:06;100023.69;;;4.30;100.00
57024;BME280;42916;54.346;18.562;2022-11-04T01:17:33;100021.15;;;4.31;100.00
57024;BME280;42916;54.346;18.562;2022-11-04T01:20:00;100015.27;;;4.32;100.00
57024;BME280;42916;54.346;18.562;2022-11-04T01:22:27;100014.94;;;4.36;100.00
57024;BME280;42916;54.346;18.562;2022-11-04T01:24:53;100013.31;;;4.40;100.00
57024;BME280;42916;54.346;18.562;2022-11-04T01:27:20;100010.95;;;4.44;100.00
57024;BME280;42916;54.346;18.562;2022-11-04T01:29:47;100006.56;;;4.48;100.00
57024;BME280;42916;54.346;18.562;2022-11-04T01:32:13;100003.10;;;4.53;100.00
57024;BME280;42916;54.346;18.562;2022-11-04T01:34:40;99997.36;;;4.58;100.00
57024;BME280;42916;54.346;18.562;2022-11-04T01:37:06;99993.59;;;4.62;100.00
57024;BME280;42916;54.346;18.562;2022-11-04T01:39:33;99989.79;;;4.64;100.00
57024;BME280;42916;54.346;18.562;2022-11-04T01:42:00;99988.17;;;4.68;100.00
57024;BME280;42916;54.346;18.562;2022-11-04T01:44:46;99988.91;;;4.72;100.00
57024;BME280;42916;54.346;18.562;2022-11-04T01:47:17;99983.52;;;4.75;100.00
57024;BME280;42916;54.346;18.562;2022-11-04T01:49:49;99981.30;;;4.77;100.00
57024;BME280;42916;54.346;18.562;2022-11-04T01:52:29;99983.98;;;4.78;100.00
57024;BME280;42916;54.346;18.562;2022-11-04T01:54:58;99978.83;;;4.79;100.00
57024;BME280;42916;54.346;18.562;2022-11-04T01:57:34;99969.21;;;4.78;100.00
57024;BME280;42916;54.346;18.562;2022-11-04T02:00:05;99962.24;;;4.79;100.00
57024;BME280;42916;54.346;18.562;2022-11-04T02:02:59;99954.93;;;4.80;100.00
57024;BME280;42916;54.346;18.562;2022-11-04T02:05:28;99952.76;;;4.81;100.00
57024;BME280;42916;54.346;18.562;2022-11-04T02:07:57;99950.30;;;4.82;100.00
57024;BME280;42916;54.346;18.562;2022-11-04T02:10:28;99944.98;;;4.85;100.00
57024;BME280;42916;54.346;18.562;2022-11-04T02:12:57;99939.95;;;4.86;100.00
57024;BME280;42916;54.346;18.562;2022-11-04T02:15:36;99939.77;;;4.88;100.00
57024;BME280;42916;54.346;18.562;2022-11-04T02:29:36;99914.34;;;4.86;100.00
57024;BME280;42916;54.346;18.562;2022-11-04T02:45:49;99893.05;;;4.99;100.00
57024;BME280;42916;54.346;18.562;2022-11-04T02:48:25;99891.89;;;5.02;100.00
57024;BME280;42916;54.346;18.562;2022-11-04T02:51:05;99889.64;;;5.07;100.00
57024;BME280;42916;54.346;18.562;2022-11-04T02:56:40;99890.63;;;5.15;100.00
57024;BME280;42916;54.346;18.562;2022-11-04T02:59:13;99888.39;;;5.18;100.00
57024;BME280;42916;54.346;18.562;2022-11-04T03:01:42;99882.33;;;5.21;100.00
57024;BME280;42916;54.346;18.562;2022-11-04T03:04:19;99877.17;;;5.24;100.00
57024;BME280;42916;54.346;18.562;2022-11-04T03:06:49;99872.36;;;5.29;100.00
57024;BME280;42916;54.346;18.562;2022-11-04T03:09:17;99871.86;;;5.32;100.00
57024;BME280;42916;54.346;18.562;2022-11-04T03:11:49;99870.11;;;5.36;100.00
57024;BME280;42916;54.346;18.562;2022-11-04T03:14:23;99869.14;;;5.38;100.00
57024;BME280;42916;54.346;18.562;2022-11-04T03:16:56;99866.16;;;5.40;100.00
57024;BME280;42916;54.346;18.562;2022-11-04T03:19:38;99866.57;;;5.40;100.00
57024;BME280;42916;54.346;18.562;2022-11-04T03:22:13;99864.98;;;5.41;100.00
57024;BME280;42916;54.346;18.562;2022-11-04T03:24:41;99867.61;;;5.42;100.00
57024;BME280;42916;54.346;18.562;2022-11-04T03:27:13;99866.46;;;5.44;100.00
57024;BME280;42916;54.346;18.562;2022-11-04T03:29:54;99864.16;;;5.45;100.00
57024;BME280;42916;54.346;18.562;2022-11-04T03:35:17;99850.47;;;5.47;100.00
57024;BME280;42916;54.346;18.562;2022-11-04T03:37:46;99843.99;;;5.47;100.00
57024;BME280;42916;54.346;18.562;2022-11-04T03:40:16;99842.61;;;5.48;100.00
57024;BME280;42916;54.346;18.562;2022-11-04T03:42:46;99836.27;;;5.50;100.00
57024;BME280;42916;54.346;18.562;2022-11-04T03:45:15;99837.94;;;5.52;100.00
57024;BME280;42916;54.346;18.562;2022-11-04T03:47:42;99834.73;;;5.53;100.00
57024;BME280;42916;54.346;18.562;2022-11-04T03:50:16;99831.30;;;5.54;100.00
57024;BME280;42916;54.346;18.562;2022-11-04T03:52:46;99829.63;;;5.54;100.00
57024;BME280;42916;54.346;18.562;2022-11-04T03:55:12;99829.27;;;5.55;100.00
57024;BME280;42916;54.346;18.562;2022-11-04T04:00:17;99822.54;;;5.58;100.00
57024;BME280;42916;54.346;18.562;2022-11-04T04:03:05;99822.25;;;5.60;100.00
57024;BME280;42916;54.346;18.562;2022-11-04T04:16:09;99813.42;;;5.69;100.00
57024;BME280;42916;54.346;18.562;2022-11-04T04:21:19;99808.90;;;5.71;100.00
57024;BME280;42916;54.346;18.562;2022-11-04T04:23:49;99807.05;;;5.74;100.00
57024;BME280;42916;54.346;18.562;2022-11-04T04:26:36;99809.11;;;5.77;100.00
57024;BME280;42916;54.346;18.562;2022-11-04T04:29:24;99807.26;;;5.78;100.00
57024;BME280;42916;54.346;18.562;2022-11-04T04:31:53;99806.95;;;5.79;100.00
57024;BME280;42916;54.346;18.562;2022-11-04T04:34:26;99804.09;;;5.79;100.00
57024;BME280;42916;54.346;18.562;2022-11-04T04:37:10;99804.63;;;5.81;100.00
57024;BME280;42916;54.346;18.562;2022-11-04T04:39:44;99800.34;;;5.83;100.00
57024;BME280;42916;54.346;18.562;2022-11-04T04:42:35;99802.06;;;5.86;100.00
57024;BME280;42916;54.346;18.562;2022-11-04T04:45:34;99806.87;;;5.89;100.00
57024;BME280;42916;54.346;18.562;2022-11-04T04:48:02;99807.50;;;5.91;100.00
57024;BME280;42916;54.346;18.562;2022-11-04T04:50:42;99800.13;;;5.92;100.00
57024;BME280;42916;54.346;18.562;2022-11-04T04:53:10;99798.60;;;5.93;100.00
57024;BME280;42916;54.346;18.562;2022-11-04T04:55:37;99796.38;;;5.96;100.00
57024;BME280;42916;54.346;18.562;2022-11-04T04:58:03;99795.36;;;5.99;100.00
57024;BME280;42916;54.346;18.562;2022-11-04T05:00:30;99795.46;;;6.02;100.00
57024;BME280;42916;54.346;18.562;2022-11-04T05:02:58;99795.75;;;6.06;100.00
57024;BME280;42916;54.346;18.562;2022-11-04T05:05:25;99799.75;;;6.09;100.00
57024;BME280;42916;54.346;18.562;2022-11-04T05:07:52;99799.17;;;6.11;100.00
57024;BME280;42916;54.346;18.562;2022-11-04T05:10:18;99799.44;;;6.13;100.00
57024;BME280;42916;54.346;18.562;2022-11-04T05:12:45;99794.54;;;6.13;100.00
57024;BME280;42916;54.346;18.562;2022-11-04T05:15:30;99788.95;;;6.15;100.00
57024;BME280;42916;54.346;18.562;2022-11-04T05:17:59;99792.83;;;6.17;100.00
57024;BME280;42916;54.346;18.562;2022-11-04T05:20:27;99792.23;;;6.19;100.00
57024;BME280;42916;54.346;18.562;2022-11-04T05:22:59;99795.38;;;6.20;100.00
57024;BME280;42916;54.346;18.562;2022-11-04T05:25:26;99786.25;;;6.20;100.00
57024;BME280;42916;54.346;18.562;2022-11-04T05:27:52;99780.04;;;6.20;100.00
57024;BME280;42916;54.346;18.562;2022-11-04T05:30:19;99781.58;;;6.19;100.00
57024;BME280;42916;54.346;18.562;2022-11-04T05:32:46;99778.81;;;6.21;100.00
57024;BME280;42916;54.346;18.562;2022-11-04T05:35:12;99778.02;;;6.22;100.00
57024;BME280;42916;54.346;18.562;2022-11-04T05:37:39;99777.48;;;6.23;100.00
57024;BME280;42916;54.346;18.562;2022-11-04T05:40:06;99777.14;;;6.24;100.00
57024;BME280;42916;54.346;18.562;2022-11-04T05:42:33;99778.65;;;6.25;100.00
57024;BME280;42916;54.346;18.562;2022-11-04T05:45:03;99778.55;;;6.25;100.00
57024;BME280;42916;54.346;18.562;2022-11-04T05:47:30;99782.08;;;6.26;100.00
57024;BME280;42916;54.346;18.562;2022-11-04T05:49:56;99778.89;;;6.29;100.00
57024;BME280;42916;54.346;18.562;2022-11-04T05:52:23;99772.02;;;6.31;100.00
57024;BME280;42916;54.346;18.562;2022-11-04T05:54:50;99769.30;;;6.32;100.00
57024;BME280;42916;54.346;18.562;2022-11-04T05:57:16;99772.09;;;6.34;100.00
57024;BME280;42916;54.346;18.562;2022-11-04T05:59:43;99770.46;;;6.34;100.00
57024;BME280;42916;54.346;18.562;2022-11-04T06:02:10;99771.14;;;6.33;100.00
57024;BME280;42916;54.346;18.562;2022-11-04T06:04:36;99771.89;;;6.33;100.00
57024;BME280;42916;54.346;18.562;2022-11-04T06:07:03;99768.38;;;6.33;100.00
57024;BME280;42916;54.346;18.562;2022-11-04T06:09:30;99766.21;;;6.32;100.00
57024;BME280;42916;54.346;18.562;2022-11-04T06:12:14;99766.20;;;6.31;100.00
57024;BME280;42916;54.346;18.562;2022-11-04T06:14:44;99764.27;;;6.32;100.00
57024;BME280;42916;54.346;18.562;2022-11-04T06:17:14;99766.64;;;6.32;100.00
57024;BME280;42916;54.346;18.562;2022-11-04T06:19:41;99761.48;;;6.32;100.00
57024;BME280;42916;54.346;18.562;2022-11-04T06:22:13;99758.36;;;6.31;100.00
57024;BME280;42916;54.346;18.562;2022-11-04T06:24:40;99761.61;;;6.32;100.00
57024;BME280;42916;54.346;18.562;2022-11-04T06:27:08;99762.53;;;6.32;100.00
57024;BME280;42916;54.346;18.562;2022-11-04T06:29:36;99759.64;;;6.33;100.00
57024;BME280;42916;54.346;18.562;2022-11-04T06:32:14;99758.63;;;6.34;100.00
57024;BME280;42916;54.346;18.562;2022-11-04T06:34:41;99759.96;;;6.37;100.00
57024;BME280;42916;54.346;18.562;2022-11-04T06:37:09;99756.69;;;6.38;100.00
57024;BME280;42916;54.346;18.562;2022-11-04T06:39:36;99758.21;;;6.39;100.00
57024;BME280;42916;54.346;18.562;2022-11-04T06:42:03;99758.30;;;6.40;100.00
57024;BME280;42916;54.346;18.562;2022-11-04T06:44:29;99753.23;;;6.41;100.00
57024;BME280;42916;54.346;18.562;2022-11-04T06:46:56;99759.89;;;6.46;100.00
57024;BME280;42916;54.346;18.562;2022-11-04T06:49:23;99757.77;;;6.47;100.00
57024;BME280;42916;54.346;18.562;2022-11-04T06:51:49;99763.72;;;6.51;100.00
57024;BME280;42916;54.346;18.562;2022-11-04T06:54:17;99769.82;;;6.53;100.00
57024;BME280;42916;54.346;18.562;2022-11-04T06:56:44;99771.33;;;6.56;100.00
57024;BME280;42916;54.346;18.562;2022-11-04T06:59:16;99772.16;;;6.57;100.00
57024;BME280;42916;54.346;18.562;2022-11-04T07:01:43;99770.91;;;6.60;100.00
57024;BME280;42916;54.346;18.562;2022-11-04T07:04:11;99769.97;;;6.63;100.00
57024;BME280;42916;54.346;18.562;2022-11-04T07:06:40;99772.05;;;6.67;100.00
57024;BME280;42916;54.346;18.562;2022-11-04T07:09:10;99770.81;;;6.74;100.00
57024;BME280;42916;54.346;18.562;2022-11-04T07:11:37;99767.75;;;6.78;100.00
57024;BME280;42916;54.346;18.562;2022-11-04T07:14:04;99769.02;;;6.83;100.00
57024;BME280;42916;54.346;18.562;2022-11-04T07:16:31;99767.73;;;6.87;100.00
57024;BME280;42916;54.346;18.562;2022-11-04T07:18:58;99764.09;;;6.89;100.00
57024;BME280;42916;54.346;18.562;2022-11-04T07:21:25;99760.14;;;6.90;100.00
57024;BME280;42916;54.346;18.562;2022-11-04T07:23:51;99759.73;;;6.91;100.00
57024;BME280;42916;54.346;18.562;2022-11-04T07:26:18;99758.84;;;6.94;100.00
57024;BME280;42916;54.346;18.562;2022-11-04T07:28:45;99760.17;;;6.95;100.00
57024;BME280;42916;54.346;18.562;2022-11-04T07:31:13;99762.44;;;6.98;100.00
57024;BME280;42916;54.346;18.562;2022-11-04T07:33:40;99760.05;;;7.01;100.00
57024;BME280;42916;54.346;18.562;2022-11-04T07:36:10;99758.67;;;7.03;100.00
57024;BME280;42916;54.346;18.562;2022-11-04T07:38:38;99759.22;;;7.04;100.00
57024;BME280;42916;54.346;18.562;2022-11-04T07:41:05;99756.10;;;7.05;100.00
57024;BME280;42916;54.346;18.562;2022-11-04T07:43:31;99752.79;;;7.08;100.00
57024;BME280;42916;54.346;18.562;2022-11-04T07:46:03;99747.33;;;7.11;100.00
57024;BME280;42916;54.346;18.562;2022-11-04T07:48:31;99753.55;;;7.15;100.00
57024;BME280;42916;54.346;18.562;2022-11-04T07:50:59;99760.90;;;7.19;100.00
57024;BME280;42916;54.346;18.562;2022-11-04T07:53:28;99758.95;;;7.24;100.00
57024;BME280;42916;54.346;18.562;2022-11-04T07:55:55;99760.52;;;7.26;100.00
57024;BME280;42916;54.346;18.562;2022-11-04T07:58:23;99760.64;;;7.29;100.00
57024;BME280;42916;54.346;18.562;2022-11-04T08:00:59;99756.64;;;7.31;100.00
57024;BME280;42916;54.346;18.562;2022-11-04T08:03:26;99753.41;;;7.37;100.00
57024;BME280;42916;54.346;18.562;2022-11-04T08:05:58;99748.27;;;7.41;100.00
57024;BME280;42916;54.346;18.562;2022-11-04T08:08:26;99751.32;;;7.46;100.00
57024;BME280;42916;54.346;18.562;2022-11-04T08:10:58;99755.00;;;7.50;100.00
57024;BME280;42916;54.346;18.562;2022-11-04T08:13:27;99755.67;;;7.52;100.00
57024;BME280;42916;54.346;18.562;2022-11-04T08:15:55;99759.88;;;7.56;100.00
57024;BME280;42916;54.346;18.562;2022-11-04T08:18:22;99760.14;;;7.59;100.00
57024;BME280;42916;54.346;18.562;2022-11-04T08:20:50;99760.03;;;7.63;100.00
57024;BME280;42916;54.346;18.562;2022-11-04T08:23:18;99752.90;;;7.68;100.00
57024;BME280;42916;54.346;18.562;2022-11-04T08:25:45;99754.06;;;7.75;100.00
57024;BME280;42916;54.346;18.562;2022-11-04T08:28:12;99752.55;;;7.85;100.00
57024;BME280;42916;54.346;18.562;2022-11-04T08:31:07;99748.23;;;7.96;100.00
57024;BME280;42916;54.346;18.562;2022-11-04T08:33:34;99745.62;;;8.05;100.00
57024;BME280;42916;54.346;18.562;2022-11-04T08:36:05;99743.71;;;8.13;100.00
57024;BME280;42916;54.346;18.562;2022-11-04T08:38:32;99741.58;;;8.22;100.00
57024;BME280;42916;54.346;18.562;2022-11-04T08:41:01;99742.50;;;8.28;100.00
57024;BME280;42916;54.346;18.562;2022-11-04T08:43:29;99736.77;;;8.34;100.00
57024;BME280;42916;54.346;18.562;2022-11-04T08:45:56;99736.48;;;8.42;100.00
57024;BME280;42916;54.346;18.562;2022-11-04T08:48:24;99733.20;;;8.51;100.00
57024;BME280;42916;54.346;18.562;2022-11-04T08:50:52;99733.10;;;8.59;100.00
57024;BME280;42916;54.346;18.562;2022-11-04T08:53:20;99729.11;;;8.69;100.00
57024;BME280;42916;54.346;18.562;2022-11-04T08:55:47;99727.14;;;8.79;100.00
57024;BME280;42916;54.346;18.562;2022-11-04T08:58:14;99731.64;;;8.84;100.00
57024;BME280;42916;54.346;18.562;2022-11-04T09:00:41;99731.62;;;8.92;100.00
57024;BME280;42916;54.346;18.562;2022-11-04T09:03:08;99727.01;;;8.99;100.00
57024;BME280;42916;54.346;18.562;2022-11-04T09:05:36;99723.71;;;9.02;100.00
57024;BME280;42916;54.346;18.562;2022-11-04T09:08:14;99724.63;;;9.08;100.00
57024;BME280;42916;54.346;18.562;2022-11-04T09:10:43;99724.49;;;9.14;100.00
57024;BME280;42916;54.346;18.562;2022-11-04T09:13:11;99728.59;;;9.20;100.00
57024;BME280;42916;54.346;18.562;2022-11-04T09:15:38;99730.01;;;9.28;100.00
57024;BME280;42916;54.346;18.562;2022-11-04T09:18:05;99724.84;;;9.36;100.00
57024;BME280;42916;54.346;18.562;2022-11-04T09:20:32;99729.64;;;9.42;100.00
57024;BME280;42916;54.346;18.562;2022-11-04T09:22:59;99731.20;;;9.46;100.00
57024;BME280;42916;54.346;18.562;2022-11-04T09:25:26;99733.19;;;9.48;100.00
57024;BME280;42916;54.346;18.562;2022-11-04T09:27:52;99739.46;;;9.53;100.00
57024;BME280;42916;54.346;18.562;2022-11-04T09:30:19;99722.38;;;9.58;100.00
57024;BME280;42916;54.346;18.562;2022-11-04T09:32:46;99730.27;;;9.57;100.00
57024;BME280;42916;54.346;18.562;2022-11-04T09:35:14;99726.95;;;9.61;100.00
57024;BME280;42916;54.346;18.562;2022-11-04T09:37:43;99722.45;;;9.63;100.00
57024;BME280;42916;54.346;18.562;2022-11-04T09:40:15;99724.33;;;9.68;100.00
57024;BME280;42916;54.346;18.562;2022-11-04T09:43:18;99724.93;;;9.76;100.00
57024;BME280;42916;54.346;18.562;2022-11-04T09:45:49;99722.16;;;9.87;100.00
57024;BME280;42916;54.346;18.562;2022-11-04T09:48:29;99722.02;;;9.94;100.00
57024;BME280;42916;54.346;18.562;2022-11-04T09:51:01;99714.30;;;9.97;100.00
57024;BME280;42916;54.346;18.562;2022-11-04T09:53:37;99712.34;;;9.94;99.85
57024;BME280;42916;54.346;18.562;2022-11-04T09:56:11;99713.91;;;9.92;99.47
57024;BME280;42916;54.346;18.562;2022-11-04T09:58:39;99715.48;;;9.92;99.08
57024;BME280;42916;54.346;18.562;2022-11-04T10:01:27;99710.33;;;9.91;98.91
57024;BME280;42916;54.346;18.562;2022-11-04T10:15:58;99697.09;;;9.96;97.82
57024;BME280;42916;54.346;18.562;2022-11-04T10:23:41;99703.73;;;9.85;97.27
57024;BME280;42916;54.346;18.562;2022-11-04T10:26:13;99699.06;;;9.87;97.39
57024;BME280;42916;54.346;18.562;2022-11-04T10:28:46;99699.14;;;9.94;97.86
57024;BME280;42916;54.346;18.562;2022-11-04T10:31:17;99700.41;;;10.08;97.90
57024;BME280;42916;54.346;18.562;2022-11-04T10:33:55;99702.52;;;10.21;97.25
57024;BME280;42916;54.346;18.562;2022-11-04T10:36:25;99707.42;;;10.32;96.68
57024;BME280;42916;54.346;18.562;2022-11-04T10:38:54;99704.46;;;10.37;96.04
57024;BME280;42916;54.346;18.562;2022-11-04T10:41:34;99701.69;;;10.40;95.60
57024;BME280;42916;54.346;18.562;2022-11-04T10:44:06;99697.00;;;10.40;94.90
57024;BME280;42916;54.346;18.562;2022-11-04T10:47:03;99692.61;;;10.42;94.53
57024;BME280;42916;54.346;18.562;2022-11-04T10:52:17;99693.63;;;10.48;94.28
57024;BME280;42916;54.346;18.562;2022-11-04T10:54:46;99699.79;;;10.46;93.93
57024;BME280;42916;54.346;18.562;2022-11-04T10:57:20;99697.84;;;10.47;94.20
57024;BME280;42916;54.346;18.562;2022-11-04T10:59:58;99698.04;;;10.46;93.88
57024;BME280;42916;54.346;18.562;2022-11-04T11:05:22;99692.55;;;10.35;93.46
57024;BME280;42916;54.346;18.562;2022-11-04T11:07:53;99693.82;;;10.26;93.20
57024;BME280;42916;54.346;18.562;2022-11-04T11:13:01;99689.09;;;10.27;93.85
57024;BME280;42916;54.346;18.562;2022-11-04T11:20:31;99684.45;;;10.47;93.73
57024;BME280;42916;54.346;18.562;2022-11-04T11:23:00;99679.55;;;10.53;93.47
57024;BME280;42916;54.346;18.562;2022-11-04T11:25:31;99672.15;;;10.61;93.59
57024;BME280;42916;54.346;18.562;2022-11-04T11:33:00;99660.66;;;10.72;92.42
57024;BME280;42916;54.346;18.562;2022-11-04T11:35:36;99658.09;;;10.77;92.48
57024;BME280;42916;54.346;18.562;2022-11-04T11:38:20;99655.20;;;10.85;92.16
57024;BME280;42916;54.346;18.562;2022-11-04T11:40:48;99646.79;;;10.96;92.09
57024;BME280;42916;54.346;18.562;2022-11-04T11:43:25;99638.67;;;10.98;91.37
57024;BME280;42916;54.346;18.562;2022-11-04T11:45:53;99637.33;;;10.97;90.84
57024;BME280;42916;54.346;18.562;2022-11-04T11:48:31;99635.13;;;11.01;91.00
57024;BME280;42916;54.346;18.562;2022-11-04T11:50:59;99631.81;;;11.01;90.48
57024;BME280;42916;54.346;18.562;2022-11-04T11:53:27;99629.67;;;11.00;90.27
57024;BME280;42916;54.346;18.562;2022-11-04T11:56:23;99626.54;;;10.98;90.14
57024;BME280;42916;54.346;18.562;2022-11-04T11:58:58;99626.48;;;11.00;90.05
57024;BME280;42916;54.346;18.562;2022-11-04T12:01:41;99628.88;;;10.99;89.96
57024;BME280;42916;54.346;18.562;2022-11-04T12:04:12;99626.10;;;11.00;89.79
57024;BME280;42916;54.346;18.562;2022-11-04T12:09:59;99628.16;;;11.05;89.48
57024;BME280;42916;54.346;18.562;2022-11-04T12:12:37;99627.73;;;11.15;89.78
57024;BME280;42916;54.346;18.562;2022-11-04T12:15:40;99629.41;;;11.17;89.51
57024;BME280;42916;54.346;18.562;2022-11-04T12:21:14;99648.38;;;11.29;89.75
57024;BME280;42916;54.346;18.562;2022-11-04T12:23:59;99647.39;;;11.28;89.42
57024;BME280;42916;54.346;18.562;2022-11-04T12:32:16;99646.71;;;11.35;89.67
57024;BME280;42916;54.346;18.562;2022-11-04T12:35:06;99649.79;;;11.29;89.21
57024;BME280;42916;54.346;18.562;2022-11-04T12:40:27;99656.20;;;11.16;89.22
57024;BME280;42916;54.346;18.562;2022-11-04T12:48:48;99653.96;;;10.74;89.34
57024;BME280;42916;54.346;18.562;2022-11-04T13:00:11;99649.70;;;10.42;89.91
57024;BME280;42916;54.346;18.562;2022-11-04T13:02:42;99644.59;;;10.39;90.37
57024;BME280;42916;54.346;18.562;2022-11-04T13:10:33;99643.29;;;10.41;90.53
57024;BME280;42916;54.346;18.562;2022-11-04T13:13:05;99638.77;;;10.41;90.33
57024;BME280;42916;54.346;18.562;2022-11-04T13:15:42;99637.52;;;10.39;90.57
57024;BME280;42916;54.346;18.562;2022-11-04T13:18:15;99639.87;;;10.35;90.50
57024;BME280;42916;54.346;18.562;2022-11-04T13:21:08;99642.81;;;10.31;90.75
57024;BME280;42916;54.346;18.562;2022-11-04T13:23:51;99650.66;;;10.30;90.98
57024;BME280;42916;54.346;18.562;2022-11-04T13:26:20;99657.49;;;10.26;90.83
57024;BME280;42916;54.346;18.562;2022-11-04T13:28:53;99663.10;;;10.22;90.75
57024;BME280;42916;54.346;18.562;2022-11-04T13:31:51;99663.42;;;10.18;90.81
57024;BME280;42916;54.346;18.562;2022-11-04T13:34:31;99661.52;;;10.14;91.02
57024;BME280;42916;54.346;18.562;2022-11-04T13:37:11;99666.41;;;10.11;91.23
57024;BME280;42916;54.346;18.562;2022-11-04T13:39:54;99667.98;;;10.08;91.44
57024;BME280;42916;54.346;18.562;2022-11-04T13:42:48;99667.05;;;10.06;91.56
57024;BME280;42916;54.346;18.562;2022-11-04T13:45:11;99663.23;;;10.04;91.46
57024;BME280;42916;54.346;18.562;2022-11-04T13:47:52;99664.05;;;10.02;91.65
57024;BME280;42916;54.346;18.562;2022-11-04T13:50:33;99662.38;;;10.03;91.95
57024;BME280;42916;54.346;18.562;2022-11-04T13:53:02;99661.17;;;10.01;92.06
57024;BME280;42916;54.346;18.562;2022-11-04T13:55:29;99660.19;;;9.98;92.05
57024;BME280;42916;54.346;18.562;2022-11-04T13:57:59;99660.67;;;9.95;92.31
57024;BME280;42916;54.346;18.562;2022-11-04T14:00:36;99659.91;;;9.93;92.44
57024;BME280;42916;54.346;18.562;2022-11-04T14:06:06;99662.63;;;9.91;92.64
57024;BME280;42916;54.346;18.562;2022-11-04T14:08:33;99657.78;;;9.90;92.71
57024;BME280;42916;54.346;18.562;2022-11-04T14:11:06;99661.09;;;9.87;92.57
57024;BME280;42916;54.346;18.562;2022-11-04T14:18:45;99650.02;;;9.72;92.72
57024;BME280;42916;54.346;18.562;2022-11-04T14:21:15;99649.26;;;9.67;92.85
57024;BME280;42916;54.346;18.562;2022-11-04T14:23:50;99651.41;;;9.62;93.06
57024;BME280;42916;54.346;18.562;2022-11-04T14:26:20;99652.32;;;9.58;93.28
57024;BME280;42916;54.346;18.562;2022-11-04T14:28:58;99654.15;;;9.53;93.32
57024;BME280;42916;54.346;18.562;2022-11-04T14:31:38;99649.36;;;9.48;94.08
57024;BME280;42916;54.346;18.562;2022-11-04T14:34:06;99648.20;;;9.43;94.04
57024;BME280;42916;54.346;18.562;2022-11-04T14:36:54;99662.25;;;9.38;94.37
57024;BME280;42916;54.346;18.562;2022-11-04T14:39:23;99663.10;;;9.34;94.08
57024;BME280;42916;54.346;18.562;2022-11-04T14:41:59;99667.05;;;9.30;94.25
57024;BME280;42916;54.346;18.562;2022-11-04T14:44:42;99666.39;;;9.27;94.80
57024;BME280;42916;54.346;18.562;2022-11-04T14:49:47;99660.31;;;9.17;94.87
57024;BME280;42916;54.346;18.562;2022-11-04T14:52:37;99663.21;;;9.12;95.15
57024;BME280;42916;54.346;18.562;2022-11-04T14:55:05;99658.85;;;9.05;95.27
57024;BME280;42916;54.346;18.562;2022-11-04T14:57:39;99666.10;;;9.03;95.43
57024;BME280;42916;54.346;18.562;2022-11-04T15:05:58;99666.58;;;8.93;96.11
57024;BME280;42916;54.346;18.562;2022-11-04T15:11:13;99668.11;;;8.86;96.31
57024;BME280;42916;54.346;18.562;2022-11-04T15:13:49;99671.30;;;8.83;96.66
57024;BME280;42916;54.346;18.562;2022-11-04T15:16:19;99669.11;;;8.80;96.68
57024;BME280;42916;54.346;18.562;2022-11-04T15:18:47;99678.30;;;8.77;96.83
57024;BME280;42916;54.346;18.562;2022-11-04T15:21:15;99681.45;;;8.77;97.01
57024;BME280;42916;54.346;18.562;2022-11-04T15:23:48;99681.39;;;8.75;97.20
57024;BME280;42916;54.346;18.562;2022-11-04T15:26:26;99680.17;;;8.71;97.22
57024;BME280;42916;54.346;18.562;2022-11-04T15:28:54;99676.08;;;8.67;97.56
57024;BME280;42916;54.346;18.562;2022-11-04T15:31:27;99680.17;;;8.64;97.97
57024;BME280;42916;54.346;18.562;2022-11-04T15:33:57;99677.23;;;8.62;98.08